createdAt,value
2022-09-04T00:03:37.079Z,40.88
2022-09-04T00:08:29.649Z,41.01
2022-09-04T00:13:22.304Z,41.31
2022-09-04T00:18:14.978Z,41.15
2022-09-04T00:23:07.549Z,41.46
2022-09-04T00:27:59.988Z,41.25
2022-09-04T00:32:52.642Z,41.19
2022-09-04T00:37:45.110Z,40.94
2022-09-04T00:42:39.746Z,40.79
2022-09-04T00:47:32.140Z,40.94
2022-09-04T00:52:31.392Z,40.94
2022-09-04T00:57:17.485Z,40.91
2022-09-04T01:02:10.497Z,40.78
2022-09-04T01:07:03.092Z,40.9
2022-09-04T01:11:55.805Z,40.7
2022-09-04T01:16:48.328Z,40.59
2022-09-04T01:21:40.517Z,40.7
2022-09-04T01:26:33.069Z,40.7
2022-09-04T01:31:25.808Z,40.66
2022-09-04T01:36:18.623Z,40.65
2022-09-04T01:41:10.870Z,40.73
2022-09-04T01:46:03.387Z,40.7
2022-09-04T01:50:56.069Z,40.62
2022-09-04T01:55:48.701Z,40.64
2022-09-04T02:00:41.405Z,40.67
2022-09-04T02:05:34.126Z,40.49
2022-09-04T02:10:22.093Z,40.51
2022-09-04T02:15:14.574Z,40.5
2022-09-04T02:20:08.354Z,40.6
2022-09-04T02:25:00.978Z,40.61
2022-09-04T02:29:53.578Z,40.58
2022-09-04T02:34:46.334Z,40.48
2022-09-04T02:44:31.633Z,40.47
2022-09-04T02:54:17.054Z,40.48
2022-09-04T03:04:02.012Z,40.5
2022-09-04T03:13:47.374Z,40.49
2022-09-04T03:18:39.963Z,40.49
2022-09-04T03:23:32.575Z,40.56
2022-09-04T03:28:25.113Z,40.62
2022-09-04T03:33:17.681Z,40.56
2022-09-04T03:38:10.248Z,40.6
2022-09-04T03:43:02.791Z,40.59
2022-09-04T03:47:55.220Z,40.49
2022-09-04T03:52:47.822Z,40.26
2022-09-04T03:57:40.348Z,40.5
2022-09-04T04:02:33.152Z,40.65
2022-09-04T04:07:25.581Z,41
2022-09-04T04:12:18.147Z,41.13
2022-09-04T04:17:12.680Z,41.55
2022-09-04T04:22:03.167Z,41.45
2022-09-04T04:26:55.761Z,41.52
2022-09-04T04:31:48.281Z,41.3
2022-09-04T04:36:40.864Z,41.24
2022-09-04T04:41:33.499Z,41.29
2022-09-04T04:46:26.250Z,41.28
2022-09-04T04:51:18.795Z,41.4
2022-09-04T04:56:11.509Z,41.4
2022-09-04T05:01:03.961Z,41.72
2022-09-04T05:05:56.044Z,42.94
2022-09-04T05:10:48.127Z,43.52
2022-09-04T05:15:53.150Z,43.67
2022-09-04T05:20:32.640Z,44.99
2022-09-04T05:25:25.384Z,47.02
2022-09-04T05:30:17.608Z,46.42
2022-09-04T05:35:10.214Z,46.78
2022-09-04T05:40:02.218Z,46.75
2022-09-04T05:44:54.823Z,46.28
2022-09-04T05:49:47.209Z,48.69
2022-09-04T05:54:39.228Z,50.15
2022-09-04T05:59:32.104Z,49.1
2022-09-04T06:04:25.316Z,46.81
2022-09-04T06:09:17.902Z,48.06
2022-09-04T06:14:10.602Z,46.2
2022-09-04T06:19:03.225Z,46.31
2022-09-04T06:23:56.036Z,49.2
2022-09-04T06:28:48.512Z,46.6
2022-09-04T06:33:40.564Z,47.44
2022-09-04T06:38:33.086Z,49.68
2022-09-04T06:43:26.487Z,49.22
2022-09-04T06:48:18.720Z,49.44
2022-09-04T06:53:10.554Z,51.48
2022-09-04T06:58:02.577Z,52.08
2022-09-04T07:02:56.814Z,48.75
2022-09-04T07:07:48.104Z,49.67
2022-09-04T07:12:40.805Z,52.63
2022-09-04T07:17:34.447Z,50.41
2022-09-04T07:22:26.036Z,52.39
2022-09-04T07:27:19.328Z,50.03
2022-09-04T07:32:11.075Z,51.93
2022-09-04T07:37:04.851Z,50.5
2022-09-04T07:41:57.017Z,51.27
2022-09-04T07:46:49.805Z,50.48
2022-09-04T07:51:42.426Z,49.13
2022-09-04T07:56:34.458Z,49.37
2022-09-04T08:01:27.236Z,49.38
2022-09-04T08:06:19.599Z,48.38
2022-09-04T08:11:12.374Z,48.31
2022-09-04T08:16:04.684Z,48.65
2022-09-04T08:20:57.628Z,47.93
2022-09-04T08:25:45.326Z,46.98
2022-09-04T08:30:37.895Z,46.08
2022-09-04T08:35:26.925Z,45.86
2022-09-04T08:40:19.569Z,45.51
2022-09-04T08:45:13.494Z,45.29
2022-09-04T08:50:01.693Z,44.92
2022-09-04T08:54:54.145Z,44.87
2022-09-04T08:59:47.953Z,44.64
2022-09-04T09:04:40.617Z,44.36
2022-09-04T09:09:33.483Z,44.23
2022-09-04T09:19:19.103Z,43.84
2022-09-04T09:28:59.759Z,43.6
2022-09-04T09:38:41.550Z,43.39
2022-09-04T09:48:28.060Z,42.85
2022-09-04T09:53:20.492Z,42.69
2022-09-04T09:58:13.049Z,42.46
2022-09-04T10:03:05.715Z,42.29
2022-09-04T10:07:58.483Z,42.24
2022-09-04T10:17:43.770Z,42.15
2022-09-04T10:27:29.525Z,42.54
2022-09-04T10:37:15.095Z,42.52
2022-09-04T10:42:07.754Z,42.66
2022-09-04T10:47:00.238Z,42.41
2022-09-04T10:51:52.768Z,42.38
2022-09-04T10:56:45.633Z,42.38
2022-09-04T11:06:31.156Z,42.3
2022-09-04T11:11:23.738Z,43.43
2022-09-04T11:16:16.402Z,44.31
2022-09-04T11:21:09.204Z,45.45
2022-09-04T11:26:01.936Z,47.3
2022-09-04T11:30:54.548Z,47.12
2022-09-04T11:35:47.275Z,46.25
2022-09-04T11:40:40.001Z,46.22
2022-09-04T11:45:32.820Z,46.36
2022-09-04T11:50:25.593Z,45.42
2022-09-04T11:55:18.482Z,46.37
2022-09-04T12:00:12.785Z,45.14
2022-09-04T12:05:03.879Z,44.49
2022-09-04T12:09:56.569Z,44.45
2022-09-04T12:14:49.253Z,44.54
2022-09-04T12:19:42.110Z,43.99
2022-09-04T12:24:34.490Z,44.14
2022-09-04T12:29:27.284Z,43.37
2022-09-04T12:34:19.842Z,43.31
2022-09-04T12:39:12.551Z,43.1
2022-09-04T12:44:05.161Z,42.87
2022-09-04T12:48:58.064Z,42.69
2022-09-04T12:53:52.882Z,42.74
2022-09-04T12:58:43.484Z,42.67
2022-09-04T13:03:36.447Z,42.43
2022-09-04T13:08:29.099Z,42.13
2022-09-04T13:13:21.746Z,41.78
2022-09-04T13:18:14.481Z,41.49
2022-09-04T13:23:07.243Z,41.56
2022-09-04T13:28:00.088Z,41.28
2022-09-04T13:32:52.953Z,41.33
2022-09-04T13:37:45.729Z,41.15
2022-09-04T13:42:38.499Z,41
2022-09-04T13:47:32.006Z,40.93
2022-09-04T13:52:23.997Z,41.07
2022-09-04T13:57:16.680Z,41
2022-09-04T14:02:09.183Z,40.22
2022-09-04T14:07:01.916Z,40.52
2022-09-04T14:11:54.672Z,40.55
2022-09-04T14:16:47.519Z,40.54
2022-09-04T14:21:40.754Z,40.42
2022-09-04T14:26:32.938Z,40.47
2022-09-04T14:31:20.978Z,40.56
2022-09-04T14:36:13.380Z,40.2
2022-09-04T14:41:06.963Z,40.1
2022-09-04T14:45:59.531Z,40
2022-09-04T14:50:52.499Z,40.24
2022-09-04T14:55:45.303Z,39.92
2022-09-04T15:00:38.090Z,40.53
2022-09-04T15:05:30.875Z,40.45
2022-09-04T15:10:23.689Z,40.23
2022-09-04T15:15:16.538Z,40.33
2022-09-04T15:20:09.327Z,40.45
2022-09-04T15:25:02.037Z,40.36
2022-09-04T15:29:54.635Z,40.13
2022-09-04T15:34:47.259Z,40.59
2022-09-04T15:39:39.993Z,40.47
2022-09-04T15:44:32.586Z,39.93
2022-09-04T15:49:25.462Z,39.75
2022-09-04T15:54:18.489Z,40.22
2022-09-04T16:04:04.231Z,40.27
2022-09-04T16:13:49.759Z,40.57
2022-09-04T16:23:35.309Z,40.82
2022-09-04T16:28:28.039Z,40.83
2022-09-04T16:33:27.586Z,41
2022-09-04T16:38:13.059Z,41.12
2022-09-04T16:43:05.696Z,41.01
2022-09-04T16:47:58.367Z,41.1
2022-09-04T16:52:53.826Z,41.07
2022-09-04T16:57:43.782Z,41.12
2022-09-04T17:02:36.757Z,41.04
2022-09-04T17:07:29.361Z,41.79
2022-09-04T17:12:22.261Z,41.6
2022-09-04T17:23:57.703Z,41.25
2022-09-04T17:29:06.183Z,41.32
2022-09-04T17:31:48.726Z,41.44
2022-09-04T17:39:57.376Z,41.47
2022-09-04T17:41:35.557Z,41.96
2022-09-04T17:46:21.891Z,42.18
2022-09-04T17:51:15.493Z,41.98
2022-09-04T17:56:08.313Z,41.84
2022-09-04T18:01:14.781Z,41.81
2022-09-04T18:05:54.869Z,41.98
2022-09-04T18:10:46.438Z,41.94
2022-09-04T18:15:39.206Z,42.03
2022-09-04T18:20:31.847Z,42.17
2022-09-04T18:25:24.517Z,42.23
2022-09-04T18:31:25.769Z,42.46
2022-09-04T18:37:15.001Z,42.5
2022-09-04T18:40:02.962Z,42.47
2022-09-04T18:49:59.234Z,42.76
2022-09-04T18:50:26.882Z,42.71
2022-09-04T18:54:40.935Z,42.74
2022-09-04T18:59:33.655Z,43.02
2022-09-04T19:04:26.395Z,43.11
2022-09-04T19:09:18.930Z,42.98
2022-09-04T19:14:11.734Z,42.99
2022-09-04T19:19:04.967Z,42.93
2022-09-04T19:23:57.627Z,43.2
2022-09-04T19:28:52.425Z,43.13
2022-09-04T19:33:42.930Z,43.12
2022-09-04T19:41:15.342Z,43.08
2022-09-04T19:45:58.515Z,43.08
2022-09-04T19:48:21.474Z,43.2
2022-09-04T19:53:20.719Z,43.2
2022-09-04T19:58:06.691Z,43.33
2022-09-04T20:02:59.503Z,43.44
2022-09-04T20:07:52.077Z,43.33
2022-09-04T20:12:47.867Z,43.32
2022-09-04T20:17:37.386Z,43.39
2022-09-04T20:22:30.061Z,43.32
2022-09-04T20:27:22.794Z,43.23
2022-09-04T20:32:15.623Z,43.2
2022-09-04T20:37:08.016Z,43.24
2022-09-04T20:42:00.735Z,43.2
2022-09-04T20:48:03.674Z,43.21
2022-09-04T20:52:48.496Z,43.28
2022-09-04T20:57:43.580Z,43.27
2022-09-04T21:03:16.382Z,43.08
2022-09-04T21:06:24.235Z,43.16
2022-09-04T21:11:38.968Z,43.05
2022-09-04T21:16:09.581Z,43.09
2022-09-04T21:21:02.135Z,43.21
2022-09-04T21:25:54.903Z,43.04
2022-09-04T21:30:47.488Z,43.24
2022-09-04T21:40:49.583Z,43.14
2022-09-04T21:50:18.844Z,43.11
2022-09-04T22:02:34.244Z,43.21
2022-09-04T22:04:57.214Z,43.01
2022-09-04T22:12:19.588Z,43.13
2022-09-04T22:14:42.210Z,43.18
2022-09-04T22:19:34.871Z,43.03
2022-09-04T22:24:27.545Z,42.97
2022-09-04T22:29:22.027Z,43.08
2022-09-04T22:34:14.735Z,43.13
2022-09-04T22:39:05.759Z,43.11
2022-09-04T22:43:58.308Z,43.18
2022-09-04T22:48:57.567Z,43.14
2022-09-04T22:53:43.665Z,43.11
2022-09-04T22:58:36.484Z,43.18
2022-09-04T23:03:28.922Z,43.09
2022-09-04T23:10:58.266Z,43.23
2022-09-04T23:13:45.766Z,43.08
2022-09-04T23:20:10.259Z,43.16
2022-09-04T23:26:40.601Z,43.08
2022-09-04T23:27:51.300Z,43.09
2022-09-04T23:32:44.168Z,43.03
2022-09-04T23:37:36.847Z,43.04
2022-09-04T23:42:29.097Z,43.07
2022-09-04T23:47:47.576Z,43.09
2022-09-04T23:52:14.583Z,42.88
2022-09-04T23:57:08.132Z,43.06
